sensor_id;sensor_type;location;lat;lon;timestamp;P1;durP1;ratioP1;P2;durP2;ratioP2
77170;SDS011;66144;50.020;14.422;2023-07-13T00:02:08;6.55;;;5.25;;
77170;SDS011;66144;50.020;14.422;2023-07-13T00:04:34;7.75;;;4.43;;
77170;SDS011;66144;50.020;14.422;2023-07-13T00:07:00;6.05;;;5.03;;
77170;SDS011;66144;50.020;14.422;2023-07-13T00:09:25;6.07;;;4.10;;
77170;SDS011;66144;50.020;14.422;2023-07-13T00:11:52;6.30;;;4.82;;
77170;SDS011;66144;50.020;14.422;2023-07-13T00:14:21;6.32;;;4.93;;
77170;SDS011;66144;50.020;14.422;2023-07-13T00:16:47;5.45;;;4.55;;
77170;SDS011;66144;50.020;14.422;2023-07-13T00:19:13;7.30;;;5.30;;
77170;SDS011;66144;50.020;14.422;2023-07-13T00:21:39;7.18;;;4.80;;
77170;SDS011;66144;50.020;14.422;2023-07-13T00:24:06;8.13;;;5.53;;
77170;SDS011;66144;50.020;14.422;2023-07-13T00:26:33;8.60;;;5.28;;
77170;SDS011;66144;50.020;14.422;2023-07-13T00:28:59;7.60;;;5.07;;
77170;SDS011;66144;50.020;14.422;2023-07-13T00:31:24;7.60;;;5.15;;
77170;SDS011;66144;50.020;14.422;2023-07-13T00:33:50;7.25;;;5.00;;
77170;SDS011;66144;50.020;14.422;2023-07-13T00:36:15;7.32;;;5.30;;
77170;SDS011;66144;50.020;14.422;2023-07-13T00:38:41;6.50;;;5.18;;
77170;SDS011;66144;50.020;14.422;2023-07-13T00:41:07;8.43;;;5.75;;
77170;SDS011;66144;50.020;14.422;2023-07-13T00:43:33;8.70;;;5.63;;
77170;SDS011;66144;50.020;14.422;2023-07-13T00:48:25;6.43;;;4.97;;
77170;SDS011;66144;50.020;14.422;2023-07-13T00:50:53;5.75;;;4.82;;
77170;SDS011;66144;50.020;14.422;2023-07-13T00:53:21;7.15;;;5.40;;
77170;SDS011;66144;50.020;14.422;2023-07-13T00:55:49;6.50;;;5.30;;
77170;SDS011;66144;50.020;14.422;2023-07-13T00:58:15;7.63;;;5.38;;
77170;SDS011;66144;50.020;14.422;2023-07-13T01:00:41;6.00;;;5.10;;
77170;SDS011;66144;50.020;14.422;2023-07-13T01:03:07;6.70;;;4.95;;
77170;SDS011;66144;50.020;14.422;2023-07-13T01:05:33;6.72;;;4.40;;
77170;SDS011;66144;50.020;14.422;2023-07-13T01:08:00;6.53;;;4.78;;
77170;SDS011;66144;50.020;14.422;2023-07-13T01:10:29;6.25;;;5.40;;
77170;SDS011;66144;50.020;14.422;2023-07-13T01:13:04;7.72;;;5.05;;
77170;SDS011;66144;50.020;14.422;2023-07-13T01:15:42;7.95;;;5.30;;
77170;SDS011;66144;50.020;14.422;2023-07-13T01:18:10;7.50;;;6.00;;
77170;SDS011;66144;50.020;14.422;2023-07-13T01:20:38;8.75;;;5.40;;
77170;SDS011;66144;50.020;14.422;2023-07-13T01:23:08;6.68;;;5.28;;
77170;SDS011;66144;50.020;14.422;2023-07-13T01:25:35;6.68;;;5.25;;
77170;SDS011;66144;50.020;14.422;2023-07-13T01:28:02;7.82;;;5.72;;
77170;SDS011;66144;50.020;14.422;2023-07-13T01:30:28;5.97;;;4.97;;
77170;SDS011;66144;50.020;14.422;2023-07-13T01:32:54;9.60;;;6.07;;
77170;SDS011;66144;50.020;14.422;2023-07-13T01:35:19;7.65;;;6.00;;
77170;SDS011;66144;50.020;14.422;2023-07-13T01:37:45;7.68;;;5.80;;
77170;SDS011;66144;50.020;14.422;2023-07-13T01:40:11;9.25;;;5.65;;
77170;SDS011;66144;50.020;14.422;2023-07-13T01:42:37;7.03;;;5.78;;
77170;SDS011;66144;50.020;14.422;2023-07-13T01:45:03;7.97;;;5.60;;
77170;SDS011;66144;50.020;14.422;2023-07-13T01:47:29;7.47;;;6.00;;
77170;SDS011;66144;50.020;14.422;2023-07-13T01:49:56;7.30;;;6.07;;
77170;SDS011;66144;50.020;14.422;2023-07-13T01:52:21;7.90;;;5.68;;
77170;SDS011;66144;50.020;14.422;2023-07-13T01:54:47;6.80;;;5.72;;
77170;SDS011;66144;50.020;14.422;2023-07-13T01:57:12;9.43;;;5.75;;
77170;SDS011;66144;50.020;14.422;2023-07-13T01:59:38;8.32;;;5.93;;
77170;SDS011;66144;50.020;14.422;2023-07-13T02:02:03;7.75;;;5.93;;
77170;SDS011;66144;50.020;14.422;2023-07-13T02:04:29;7.78;;;5.50;;
77170;SDS011;66144;50.020;14.422;2023-07-13T02:06:54;9.73;;;6.13;;
77170;SDS011;66144;50.020;14.422;2023-07-13T02:09:20;7.43;;;5.60;;
77170;SDS011;66144;50.020;14.422;2023-07-13T02:11:47;6.28;;;5.63;;
77170;SDS011;66144;50.020;14.422;2023-07-13T02:14:13;6.53;;;5.35;;
77170;SDS011;66144;50.020;14.422;2023-07-13T02:16:40;6.32;;;5.38;;
77170;SDS011;66144;50.020;14.422;2023-07-13T02:19:05;8.07;;;5.32;;
77170;SDS011;66144;50.020;14.422;2023-07-13T02:21:31;7.65;;;5.88;;
77170;SDS011;66144;50.020;14.422;2023-07-13T02:23:56;8.75;;;5.65;;
77170;SDS011;66144;50.020;14.422;2023-07-13T02:26:22;8.77;;;5.78;;
77170;SDS011;66144;50.020;14.422;2023-07-13T02:28:48;6.57;;;5.07;;
77170;SDS011;66144;50.020;14.422;2023-07-13T02:31:14;7.65;;;5.75;;
77170;SDS011;66144;50.020;14.422;2023-07-13T02:33:40;8.68;;;5.90;;
77170;SDS011;66144;50.020;14.422;2023-07-13T02:36:06;6.88;;;5.28;;
77170;SDS011;66144;50.020;14.422;2023-07-13T02:38:32;8.73;;;6.03;;
77170;SDS011;66144;50.020;14.422;2023-07-13T02:41:01;7.10;;;5.18;;
77170;SDS011;66144;50.020;14.422;2023-07-13T02:43:31;9.05;;;5.57;;
77170;SDS011;66144;50.020;14.422;2023-07-13T02:45:58;6.93;;;5.15;;
77170;SDS011;66144;50.020;14.422;2023-07-13T02:48:29;9.48;;;6.07;;
77170;SDS011;66144;50.020;14.422;2023-07-13T02:50:54;6.90;;;5.25;;
77170;SDS011;66144;50.020;14.422;2023-07-13T02:53:20;6.72;;;5.03;;
77170;SDS011;66144;50.020;14.422;2023-07-13T02:55:45;6.97;;;5.25;;
77170;SDS011;66144;50.020;14.422;2023-07-13T02:58:12;8.20;;;5.30;;
77170;SDS011;66144;50.020;14.422;2023-07-13T03:00:42;6.03;;;5.15;;
77170;SDS011;66144;50.020;14.422;2023-07-13T03:03:12;7.45;;;5.30;;
77170;SDS011;66144;50.020;14.422;2023-07-13T03:05:40;9.35;;;5.78;;
77170;SDS011;66144;50.020;14.422;2023-07-13T03:08:07;6.60;;;5.30;;
77170;SDS011;66144;50.020;14.422;2023-07-13T03:10:33;7.40;;;5.25;;
77170;SDS011;66144;50.020;14.422;2023-07-13T03:12:59;6.65;;;5.03;;
77170;SDS011;66144;50.020;14.422;2023-07-13T03:15:24;9.15;;;5.40;;
77170;SDS011;66144;50.020;14.422;2023-07-13T03:17:50;6.55;;;5.53;;
77170;SDS011;66144;50.020;14.422;2023-07-13T03:20:15;8.63;;;5.35;;
77170;SDS011;66144;50.020;14.422;2023-07-13T03:22:41;8.20;;;5.78;;
77170;SDS011;66144;50.020;14.422;2023-07-13T03:25:10;7.03;;;5.10;;
77170;SDS011;66144;50.020;14.422;2023-07-13T03:27:36;7.65;;;5.32;;
77170;SDS011;66144;50.020;14.422;2023-07-13T03:30:01;9.52;;;5.65;;
77170;SDS011;66144;50.020;14.422;2023-07-13T03:32:28;7.28;;;5.45;;
77170;SDS011;66144;50.020;14.422;2023-07-13T03:34:53;7.80;;;5.40;;
77170;SDS011;66144;50.020;14.422;2023-07-13T03:37:18;7.88;;;5.72;;
77170;SDS011;66144;50.020;14.422;2023-07-13T03:39:44;8.77;;;5.78;;
77170;SDS011;66144;50.020;14.422;2023-07-13T03:42:09;7.00;;;5.47;;
77170;SDS011;66144;50.020;14.422;2023-07-13T03:44:35;7.45;;;5.68;;
77170;SDS011;66144;50.020;14.422;2023-07-13T03:47:00;7.63;;;5.70;;
77170;SDS011;66144;50.020;14.422;2023-07-13T03:49:25;6.88;;;5.88;;
77170;SDS011;66144;50.020;14.422;2023-07-13T03:51:51;6.85;;;5.43;;
77170;SDS011;66144;50.020;14.422;2023-07-13T03:54:16;6.95;;;5.97;;
77170;SDS011;66144;50.020;14.422;2023-07-13T03:56:42;9.02;;;5.72;;
77170;SDS011;66144;50.020;14.422;2023-07-13T03:59:07;6.32;;;5.22;;
77170;SDS011;66144;50.020;14.422;2023-07-13T04:01:32;7.30;;;3.92;;
77170;SDS011;66144;50.020;14.422;2023-07-13T04:03:58;5.15;;;3.40;;
77170;SDS011;66144;50.020;14.422;2023-07-13T04:06:28;4.90;;;3.55;;
77170;SDS011;66144;50.020;14.422;2023-07-13T04:08:58;5.32;;;3.33;;
77170;SDS011;66144;50.020;14.422;2023-07-13T04:11:26;6.03;;;3.75;;
77170;SDS011;66144;50.020;14.422;2023-07-13T04:13:54;4.55;;;3.47;;
77170;SDS011;66144;50.020;14.422;2023-07-13T04:16:19;5.35;;;3.15;;
77170;SDS011;66144;50.020;14.422;2023-07-13T04:18:46;5.15;;;2.78;;
77170;SDS011;66144;50.020;14.422;2023-07-13T04:21:12;4.53;;;2.63;;
77170;SDS011;66144;50.020;14.422;2023-07-13T04:23:38;5.03;;;2.90;;
77170;SDS011;66144;50.020;14.422;2023-07-13T04:26:05;4.18;;;2.60;;
77170;SDS011;66144;50.020;14.422;2023-07-13T04:28:31;4.07;;;2.33;;
77170;SDS011;66144;50.020;14.422;2023-07-13T04:30:56;6.43;;;3.03;;
77170;SDS011;66144;50.020;14.422;2023-07-13T04:33:22;2.85;;;2.20;;
77170;SDS011;66144;50.020;14.422;2023-07-13T04:35:51;3.72;;;2.58;;
77170;SDS011;66144;50.020;14.422;2023-07-13T04:40:51;5.25;;;2.83;;
77170;SDS011;66144;50.020;14.422;2023-07-13T04:43:17;3.88;;;2.20;;
77170;SDS011;66144;50.020;14.422;2023-07-13T04:45:45;4.88;;;2.72;;
77170;SDS011;66144;50.020;14.422;2023-07-13T04:48:11;5.03;;;2.40;;
77170;SDS011;66144;50.020;14.422;2023-07-13T04:50:37;4.90;;;2.30;;
77170;SDS011;66144;50.020;14.422;2023-07-13T04:53:02;3.83;;;2.42;;
77170;SDS011;66144;50.020;14.422;2023-07-13T04:55:29;3.63;;;2.30;;
77170;SDS011;66144;50.020;14.422;2023-07-13T04:57:55;4.82;;;2.17;;
77170;SDS011;66144;50.020;14.422;2023-07-13T05:00:21;6.97;;;2.47;;
77170;SDS011;66144;50.020;14.422;2023-07-13T05:02:47;3.60;;;2.55;;
77170;SDS011;66144;50.020;14.422;2023-07-13T05:05:12;4.07;;;2.10;;
77170;SDS011;66144;50.020;14.422;2023-07-13T05:07:38;4.47;;;2.53;;
77170;SDS011;66144;50.020;14.422;2023-07-13T05:10:03;4.85;;;2.53;;
77170;SDS011;66144;50.020;14.422;2023-07-13T05:12:29;3.08;;;2.50;;
77170;SDS011;66144;50.020;14.422;2023-07-13T05:14:55;3.90;;;2.40;;
77170;SDS011;66144;50.020;14.422;2023-07-13T05:17:20;4.20;;;2.42;;
77170;SDS011;66144;50.020;14.422;2023-07-13T05:19:46;3.55;;;2.45;;
77170;SDS011;66144;50.020;14.422;2023-07-13T05:22:12;3.83;;;2.80;;
77170;SDS011;66144;50.020;14.422;2023-07-13T05:24:37;4.47;;;2.83;;
77170;SDS011;66144;50.020;14.422;2023-07-13T05:27:03;5.65;;;2.97;;
77170;SDS011;66144;50.020;14.422;2023-07-13T05:29:28;6.50;;;2.80;;
77170;SDS011;66144;50.020;14.422;2023-07-13T05:31:54;4.90;;;2.70;;
77170;SDS011;66144;50.020;14.422;2023-07-13T05:34:19;4.50;;;2.63;;
77170;SDS011;66144;50.020;14.422;2023-07-13T05:36:45;6.20;;;3.05;;
77170;SDS011;66144;50.020;14.422;2023-07-13T05:39:11;4.43;;;2.65;;
77170;SDS011;66144;50.020;14.422;2023-07-13T05:41:36;4.70;;;2.72;;
77170;SDS011;66144;50.020;14.422;2023-07-13T05:44:02;5.00;;;2.70;;
77170;SDS011;66144;50.020;14.422;2023-07-13T05:46:28;5.47;;;2.65;;
77170;SDS011;66144;50.020;14.422;2023-07-13T05:48:54;5.03;;;2.40;;
77170;SDS011;66144;50.020;14.422;2023-07-13T05:51:19;4.07;;;3.28;;
77170;SDS011;66144;50.020;14.422;2023-07-13T05:53:45;3.95;;;2.70;;
77170;SDS011;66144;50.020;14.422;2023-07-13T05:56:10;4.65;;;2.58;;
77170;SDS011;66144;50.020;14.422;2023-07-13T05:58:36;5.10;;;2.70;;
77170;SDS011;66144;50.020;14.422;2023-07-13T06:01:05;3.83;;;2.67;;
77170;SDS011;66144;50.020;14.422;2023-07-13T06:03:34;3.97;;;2.60;;
77170;SDS011;66144;50.020;14.422;2023-07-13T06:05:59;3.53;;;2.20;;
77170;SDS011;66144;50.020;14.422;2023-07-13T06:08:25;3.85;;;2.75;;
77170;SDS011;66144;50.020;14.422;2023-07-13T06:10:51;3.72;;;2.42;;
77170;SDS011;66144;50.020;14.422;2023-07-13T06:13:16;3.83;;;2.78;;
77170;SDS011;66144;50.020;14.422;2023-07-13T06:15:47;4.57;;;2.85;;
77170;SDS011;66144;50.020;14.422;2023-07-13T06:18:13;4.18;;;2.60;;
77170;SDS011;66144;50.020;14.422;2023-07-13T06:20:41;5.13;;;2.53;;
77170;SDS011;66144;50.020;14.422;2023-07-13T06:23:06;7.55;;;2.92;;
77170;SDS011;66144;50.020;14.422;2023-07-13T06:25:32;3.58;;;2.67;;
77170;SDS011;66144;50.020;14.422;2023-07-13T06:27:57;4.35;;;2.80;;
77170;SDS011;66144;50.020;14.422;2023-07-13T06:30:22;4.43;;;2.90;;
77170;SDS011;66144;50.020;14.422;2023-07-13T06:32:48;3.83;;;2.47;;
77170;SDS011;66144;50.020;14.422;2023-07-13T06:35:14;3.78;;;2.65;;
77170;SDS011;66144;50.020;14.422;2023-07-13T06:37:39;3.60;;;2.53;;
77170;SDS011;66144;50.020;14.422;2023-07-13T06:40:05;5.10;;;3.15;;
77170;SDS011;66144;50.020;14.422;2023-07-13T06:42:31;5.63;;;2.72;;
77170;SDS011;66144;50.020;14.422;2023-07-13T06:44:56;3.97;;;2.42;;
77170;SDS011;66144;50.020;14.422;2023-07-13T06:47:22;4.10;;;2.40;;
77170;SDS011;66144;50.020;14.422;2023-07-13T06:49:47;4.80;;;2.85;;
77170;SDS011;66144;50.020;14.422;2023-07-13T06:52:12;4.22;;;2.75;;
77170;SDS011;66144;50.020;14.422;2023-07-13T06:54:38;6.93;;;2.55;;
77170;SDS011;66144;50.020;14.422;2023-07-13T06:57:06;5.57;;;2.83;;
77170;SDS011;66144;50.020;14.422;2023-07-13T06:59:32;5.65;;;2.97;;
77170;SDS011;66144;50.020;14.422;2023-07-13T07:01:58;4.55;;;2.60;;
77170;SDS011;66144;50.020;14.422;2023-07-13T07:04:27;4.22;;;2.72;;
77170;SDS011;66144;50.020;14.422;2023-07-13T07:06:52;4.32;;;2.80;;
77170;SDS011;66144;50.020;14.422;2023-07-13T07:09:18;5.55;;;2.60;;
77170;SDS011;66144;50.020;14.422;2023-07-13T07:11:43;5.50;;;2.55;;
77170;SDS011;66144;50.020;14.422;2023-07-13T07:14:08;3.22;;;2.40;;
77170;SDS011;66144;50.020;14.422;2023-07-13T07:16:34;4.38;;;2.60;;
77170;SDS011;66144;50.020;14.422;2023-07-13T07:18:59;4.32;;;2.70;;
77170;SDS011;66144;50.020;14.422;2023-07-13T07:21:25;6.07;;;2.42;;
77170;SDS011;66144;50.020;14.422;2023-07-13T07:23:51;4.78;;;2.90;;
77170;SDS011;66144;50.020;14.422;2023-07-13T07:26:17;4.00;;;2.83;;
77170;SDS011;66144;50.020;14.422;2023-07-13T07:28:42;5.47;;;2.40;;
77170;SDS011;66144;50.020;14.422;2023-07-13T07:31:08;3.45;;;2.30;;
77170;SDS011;66144;50.020;14.422;2023-07-13T07:33:34;3.55;;;2.35;;
77170;SDS011;66144;50.020;14.422;2023-07-13T07:35:59;4.30;;;2.30;;
77170;SDS011;66144;50.020;14.422;2023-07-13T07:38:25;3.75;;;2.22;;
77170;SDS011;66144;50.020;14.422;2023-07-13T07:40:51;3.63;;;2.47;;
77170;SDS011;66144;50.020;14.422;2023-07-13T07:43:16;3.08;;;2.25;;
77170;SDS011;66144;50.020;14.422;2023-07-13T07:45:41;3.10;;;2.08;;
77170;SDS011;66144;50.020;14.422;2023-07-13T07:48:09;3.03;;;2.10;;
77170;SDS011;66144;50.020;14.422;2023-07-13T07:50:37;4.70;;;2.58;;
77170;SDS011;66144;50.020;14.422;2023-07-13T07:53:04;2.80;;;2.10;;
77170;SDS011;66144;50.020;14.422;2023-07-13T07:55:32;5.22;;;2.53;;
77170;SDS011;66144;50.020;14.422;2023-07-13T07:58:00;3.53;;;2.40;;
77170;SDS011;66144;50.020;14.422;2023-07-13T08:00:25;3.78;;;2.40;;
77170;SDS011;66144;50.020;14.422;2023-07-13T08:02:50;3.45;;;1.90;;
77170;SDS011;66144;50.020;14.422;2023-07-13T08:05:16;4.78;;;2.40;;
77170;SDS011;66144;50.020;14.422;2023-07-13T08:07:44;2.85;;;2.35;;
77170;SDS011;66144;50.020;14.422;2023-07-13T08:10:09;3.05;;;2.17;;
77170;SDS011;66144;50.020;14.422;2023-07-13T08:12:35;4.03;;;1.95;;
77170;SDS011;66144;50.020;14.422;2023-07-13T08:15:02;3.42;;;2.08;;
77170;SDS011;66144;50.020;14.422;2023-07-13T08:17:27;4.20;;;2.80;;
77170;SDS011;66144;50.020;14.422;2023-07-13T08:19:53;4.55;;;2.55;;
77170;SDS011;66144;50.020;14.422;2023-07-13T08:22:18;3.08;;;1.80;;
77170;SDS011;66144;50.020;14.422;2023-07-13T08:24:44;3.38;;;2.30;;
77170;SDS011;66144;50.020;14.422;2023-07-13T08:27:12;3.60;;;2.20;;
77170;SDS011;66144;50.020;14.422;2023-07-13T08:29:38;2.90;;;1.90;;
77170;SDS011;66144;50.020;14.422;2023-07-13T08:32:05;3.58;;;2.20;;
77170;SDS011;66144;50.020;14.422;2023-07-13T08:34:34;4.15;;;2.00;;
77170;SDS011;66144;50.020;14.422;2023-07-13T08:37:01;3.97;;;2.53;;
77170;SDS011;66144;50.020;14.422;2023-07-13T08:39:28;4.25;;;2.33;;
77170;SDS011;66144;50.020;14.422;2023-07-13T08:41:57;3.03;;;2.10;;
77170;SDS011;66144;50.020;14.422;2023-07-13T08:47:05;3.53;;;2.10;;
77170;SDS011;66144;50.020;14.422;2023-07-13T08:49:32;4.68;;;2.30;;
77170;SDS011;66144;50.020;14.422;2023-07-13T08:52:25;4.10;;;2.03;;
77170;SDS011;66144;50.020;14.422;2023-07-13T08:54:56;3.63;;;2.28;;
77170;SDS011;66144;50.020;14.422;2023-07-13T08:57:29;5.97;;;2.55;;
77170;SDS011;66144;50.020;14.422;2023-07-13T08:59:58;3.13;;;2.30;;
77170;SDS011;66144;50.020;14.422;2023-07-13T09:02:41;5.38;;;2.13;;
77170;SDS011;66144;50.020;14.422;2023-07-13T09:05:12;4.22;;;2.15;;
77170;SDS011;66144;50.020;14.422;2023-07-13T09:07:55;4.97;;;2.10;;
77170;SDS011;66144;50.020;14.422;2023-07-13T09:10:31;4.25;;;2.60;;
77170;SDS011;66144;50.020;14.422;2023-07-13T09:15:46;4.22;;;2.30;;
77170;SDS011;66144;50.020;14.422;2023-07-13T09:18:15;4.47;;;2.33;;
77170;SDS011;66144;50.020;14.422;2023-07-13T09:21:00;3.70;;;2.40;;
77170;SDS011;66144;50.020;14.422;2023-07-13T09:23:35;4.80;;;2.65;;
77170;SDS011;66144;50.020;14.422;2023-07-13T09:26:02;114.20;;;13.88;;
77170;SDS011;66144;50.020;14.422;2023-07-13T09:28:29;4.28;;;1.90;;
77170;SDS011;66144;50.020;14.422;2023-07-13T09:31:06;3.95;;;2.30;;
77170;SDS011;66144;50.020;14.422;2023-07-13T09:33:37;3.90;;;2.40;;
77170;SDS011;66144;50.020;14.422;2023-07-13T09:36:08;3.67;;;2.13;;
77170;SDS011;66144;50.020;14.422;2023-07-13T09:38:44;4.15;;;2.03;;
77170;SDS011;66144;50.020;14.422;2023-07-13T09:41:19;4.00;;;1.90;;
77170;SDS011;66144;50.020;14.422;2023-07-13T09:46:34;3.13;;;2.08;;
77170;SDS011;66144;50.020;14.422;2023-07-13T09:49:00;5.15;;;2.45;;
77170;SDS011;66144;50.020;14.422;2023-07-13T09:51:25;4.07;;;2.08;;
77170;SDS011;66144;50.020;14.422;2023-07-13T09:53:51;3.40;;;2.03;;
77170;SDS011;66144;50.020;14.422;2023-07-13T09:56:24;3.70;;;2.03;;
77170;SDS011;66144;50.020;14.422;2023-07-13T10:01:30;3.88;;;1.67;;
77170;SDS011;66144;50.020;14.422;2023-07-13T10:04:12;3.00;;;2.10;;
77170;SDS011;66144;50.020;14.422;2023-07-13T10:06:39;3.92;;;2.13;;
77170;SDS011;66144;50.020;14.422;2023-07-13T10:09:08;3.75;;;2.15;;
77170;SDS011;66144;50.020;14.422;2023-07-13T10:11:35;3.38;;;2.08;;
77170;SDS011;66144;50.020;14.422;2023-07-13T10:14:15;4.25;;;2.33;;
77170;SDS011;66144;50.020;14.422;2023-07-13T10:16:43;4.43;;;2.10;;
77170;SDS011;66144;50.020;14.422;2023-07-13T10:21:58;4.93;;;2.40;;
77170;SDS011;66144;50.020;14.422;2023-07-13T10:24:38;3.75;;;2.25;;
77170;SDS011;66144;50.020;14.422;2023-07-13T10:27:18;4.45;;;2.13;;
77170;SDS011;66144;50.020;14.422;2023-07-13T10:29:51;3.00;;;2.08;;
77170;SDS011;66144;50.020;14.422;2023-07-13T10:32:21;3.63;;;2.10;;
77170;SDS011;66144;50.020;14.422;2023-07-13T10:34:48;4.82;;;2.03;;
77170;SDS011;66144;50.020;14.422;2023-07-13T10:37:19;3.88;;;1.90;;
77170;SDS011;66144;50.020;14.422;2023-07-13T10:39:48;2.45;;;1.88;;
77170;SDS011;66144;50.020;14.422;2023-07-13T10:42:19;3.28;;;2.30;;
77170;SDS011;66144;50.020;14.422;2023-07-13T10:44:53;4.22;;;2.03;;
77170;SDS011;66144;50.020;14.422;2023-07-13T10:47:18;3.20;;;2.00;;
77170;SDS011;66144;50.020;14.422;2023-07-13T10:49:44;4.20;;;1.83;;
77170;SDS011;66144;50.020;14.422;2023-07-13T11:03:22;3.60;;;2.30;;
77170;SDS011;66144;50.020;14.422;2023-07-13T11:05:49;3.63;;;2.20;;
77170;SDS011;66144;50.020;14.422;2023-07-13T11:08:19;4.22;;;1.92;;
77170;SDS011;66144;50.020;14.422;2023-07-13T11:14:02;3.33;;;1.75;;
77170;SDS011;66144;50.020;14.422;2023-07-13T11:16:45;2.65;;;1.90;;
77170;SDS011;66144;50.020;14.422;2023-07-13T11:24:47;2.83;;;1.88;;
77170;SDS011;66144;50.020;14.422;2023-07-13T11:27:36;3.22;;;1.92;;
77170;SDS011;66144;50.020;14.422;2023-07-13T11:32:49;3.33;;;2.22;;
77170;SDS011;66144;50.020;14.422;2023-07-13T11:35:18;3.03;;;1.90;;
77170;SDS011;66144;50.020;14.422;2023-07-13T11:37:48;2.92;;;2.03;;
77170;SDS011;66144;50.020;14.422;2023-07-13T11:40:17;3.65;;;2.08;;
77170;SDS011;66144;50.020;14.422;2023-07-13T11:42:46;6.28;;;2.05;;
77170;SDS011;66144;50.020;14.422;2023-07-13T11:45:21;4.15;;;1.90;;
77170;SDS011;66144;50.020;14.422;2023-07-13T11:47:50;4.00;;;1.73;;
77170;SDS011;66144;50.020;14.422;2023-07-13T11:50:20;3.83;;;1.90;;
77170;SDS011;66144;50.020;14.422;2023-07-13T11:52:46;3.83;;;1.80;;
77170;SDS011;66144;50.020;14.422;2023-07-13T11:55:18;2.88;;;1.92;;
77170;SDS011;66144;50.020;14.422;2023-07-13T11:57:47;3.00;;;2.00;;
77170;SDS011;66144;50.020;14.422;2023-07-13T12:00:20;3.95;;;2.28;;
77170;SDS011;66144;50.020;14.422;2023-07-13T12:02:50;2.55;;;1.85;;
77170;SDS011;66144;50.020;14.422;2023-07-13T12:05:19;4.18;;;1.90;;
77170;SDS011;66144;50.020;14.422;2023-07-13T12:07:48;2.65;;;1.63;;
77170;SDS011;66144;50.020;14.422;2023-07-13T12:13:00;3.25;;;2.10;;
77170;SDS011;66144;50.020;14.422;2023-07-13T12:18:14;3.38;;;1.95;;
77170;SDS011;66144;50.020;14.422;2023-07-13T12:20:46;3.45;;;2.03;;
77170;SDS011;66144;50.020;14.422;2023-07-13T12:23:36;6.20;;;1.95;;
77170;SDS011;66144;50.020;14.422;2023-07-13T12:26:03;4.10;;;2.35;;
77170;SDS011;66144;50.020;14.422;2023-07-13T12:28:35;3.90;;;1.77;;
77170;SDS011;66144;50.020;14.422;2023-07-13T12:36:38;3.47;;;1.88;;
77170;SDS011;66144;50.020;14.422;2023-07-13T12:41:45;4.15;;;2.00;;
77170;SDS011;66144;50.020;14.422;2023-07-13T12:44:12;3.53;;;1.60;;
77170;SDS011;66144;50.020;14.422;2023-07-13T12:46:53;3.78;;;1.83;;
77170;SDS011;66144;50.020;14.422;2023-07-13T12:49:24;3.38;;;2.00;;
77170;SDS011;66144;50.020;14.422;2023-07-13T12:51:55;3.92;;;2.05;;
77170;SDS011;66144;50.020;14.422;2023-07-13T12:54:24;4.28;;;2.05;;
77170;SDS011;66144;50.020;14.422;2023-07-13T12:56:50;3.20;;;2.08;;
77170;SDS011;66144;50.020;14.422;2023-07-13T12:59:19;2.25;;;1.95;;
77170;SDS011;66144;50.020;14.422;2023-07-13T13:01:46;2.60;;;1.88;;
77170;SDS011;66144;50.020;14.422;2023-07-13T13:04:14;3.35;;;2.10;;
77170;SDS011;66144;50.020;14.422;2023-07-13T13:06:41;2.75;;;1.70;;
77170;SDS011;66144;50.020;14.422;2023-07-13T13:09:14;3.03;;;2.10;;
77170;SDS011;66144;50.020;14.422;2023-07-13T13:11:41;3.05;;;1.80;;
77170;SDS011;66144;50.020;14.422;2023-07-13T13:14:07;3.05;;;1.88;;
77170;SDS011;66144;50.020;14.422;2023-07-13T13:16:47;3.78;;;1.92;;
77170;SDS011;66144;50.020;14.422;2023-07-13T13:19:15;3.70;;;2.00;;
77170;SDS011;66144;50.020;14.422;2023-07-13T13:21:43;2.40;;;1.70;;
77170;SDS011;66144;50.020;14.422;2023-07-13T13:24:14;3.45;;;2.08;;
77170;SDS011;66144;50.020;14.422;2023-07-13T13:26:41;3.22;;;1.95;;
77170;SDS011;66144;50.020;14.422;2023-07-13T13:29:14;3.83;;;1.88;;
77170;SDS011;66144;50.020;14.422;2023-07-13T13:31:42;5.35;;;2.05;;
77170;SDS011;66144;50.020;14.422;2023-07-13T13:34:11;2.80;;;1.63;;
77170;SDS011;66144;50.020;14.422;2023-07-13T13:36:38;3.60;;;1.88;;
77170;SDS011;66144;50.020;14.422;2023-07-13T13:39:16;3.25;;;2.00;;
77170;SDS011;66144;50.020;14.422;2023-07-13T13:41:45;3.92;;;2.10;;
77170;SDS011;66144;50.020;14.422;2023-07-13T13:44:12;3.45;;;1.73;;
77170;SDS011;66144;50.020;14.422;2023-07-13T13:46:40;4.47;;;2.38;;
77170;SDS011;66144;50.020;14.422;2023-07-13T13:49:12;3.42;;;1.90;;
77170;SDS011;66144;50.020;14.422;2023-07-13T13:51:39;3.20;;;2.10;;
77170;SDS011;66144;50.020;14.422;2023-07-13T13:54:05;4.38;;;2.03;;
77170;SDS011;66144;50.020;14.422;2023-07-13T13:56:36;2.78;;;1.77;;
77170;SDS011;66144;50.020;14.422;2023-07-13T13:59:02;4.28;;;1.90;;
77170;SDS011;66144;50.020;14.422;2023-07-13T14:01:27;4.68;;;2.38;;
77170;SDS011;66144;50.020;14.422;2023-07-13T14:03:55;4.32;;;2.00;;
77170;SDS011;66144;50.020;14.422;2023-07-13T14:06:21;4.90;;;2.28;;
77170;SDS011;66144;50.020;14.422;2023-07-13T14:08:46;2.38;;;1.63;;
77170;SDS011;66144;50.020;14.422;2023-07-13T14:11:17;3.65;;;1.73;;
77170;SDS011;66144;50.020;14.422;2023-07-13T14:13:47;3.20;;;2.38;;
77170;SDS011;66144;50.020;14.422;2023-07-13T14:16:18;3.25;;;2.17;;
77170;SDS011;66144;50.020;14.422;2023-07-13T14:18:46;4.20;;;1.90;;
77170;SDS011;66144;50.020;14.422;2023-07-13T14:21:16;5.18;;;2.20;;
77170;SDS011;66144;50.020;14.422;2023-07-13T14:23:44;3.58;;;1.90;;
77170;SDS011;66144;50.020;14.422;2023-07-13T14:26:11;3.70;;;2.08;;
77170;SDS011;66144;50.020;14.422;2023-07-13T14:28:41;3.28;;;2.00;;
77170;SDS011;66144;50.020;14.422;2023-07-13T14:31:08;4.03;;;2.20;;
77170;SDS011;66144;50.020;14.422;2023-07-13T14:33:34;4.50;;;2.15;;
77170;SDS011;66144;50.020;14.422;2023-07-13T14:35:59;3.60;;;2.20;;
77170;SDS011;66144;50.020;14.422;2023-07-13T14:38:25;3.80;;;2.10;;
77170;SDS011;66144;50.020;14.422;2023-07-13T14:40:50;3.90;;;2.25;;
77170;SDS011;66144;50.020;14.422;2023-07-13T14:43:16;5.25;;;2.50;;
77170;SDS011;66144;50.020;14.422;2023-07-13T14:45:46;2.90;;;2.13;;
77170;SDS011;66144;50.020;14.422;2023-07-13T14:48:24;3.50;;;2.00;;
77170;SDS011;66144;50.020;14.422;2023-07-13T14:50:53;3.17;;;2.05;;
77170;SDS011;66144;50.020;14.422;2023-07-13T14:53:22;3.70;;;1.80;;
77170;SDS011;66144;50.020;14.422;2023-07-13T14:55:54;4.80;;;2.17;;
77170;SDS011;66144;50.020;14.422;2023-07-13T14:58:20;3.10;;;2.10;;
77170;SDS011;66144;50.020;14.422;2023-07-13T15:00:45;2.22;;;1.65;;
77170;SDS011;66144;50.020;14.422;2023-07-13T15:03:21;4.18;;;2.20;;
77170;SDS011;66144;50.020;14.422;2023-07-13T15:05:49;2.88;;;2.25;;
77170;SDS011;66144;50.020;14.422;2023-07-13T15:08:16;3.00;;;2.00;;
77170;SDS011;66144;50.020;14.422;2023-07-13T15:10:41;4.13;;;2.50;;
77170;SDS011;66144;50.020;14.422;2023-07-13T15:13:20;3.83;;;2.28;;
77170;SDS011;66144;50.020;14.422;2023-07-13T15:15:47;3.95;;;2.15;;
77170;SDS011;66144;50.020;14.422;2023-07-13T15:18:15;4.80;;;2.10;;
77170;SDS011;66144;50.020;14.422;2023-07-13T15:20:42;3.45;;;2.13;;
77170;SDS011;66144;50.020;14.422;2023-07-13T15:23:13;4.20;;;2.10;;
77170;SDS011;66144;50.020;14.422;2023-07-13T15:25:41;2.78;;;2.00;;
77170;SDS011;66144;50.020;14.422;2023-07-13T15:28:07;5.03;;;2.28;;
77170;SDS011;66144;50.020;14.422;2023-07-13T15:30:40;3.05;;;2.22;;
77170;SDS011;66144;50.020;14.422;2023-07-13T15:33:12;3.85;;;2.20;;